• Join FlightAware (Why Join?)
  • Login
  • US Flag 
07:43PM EST


 

Airport Tracker/Info


-or-


 

Live Flight TrackerFlight Track Log ✈ UAL906 ✈ 15-Jul-2013 ✈ EDDF / FRA - KORD

Flight Track Log - Related Links

Times and Time Zones

All times are in EDT time to prevent confusion due to time zone crossing. See the UAL906 flight status page for this flight to view local times or setup timezone preferences in your user account.

Time Position Orientation Groundspeed Altitude Reporting Facility
EDT Latitude Longitude Course Direction KTS MPH feet Rate Location/Type
07:23AM 49.9520 8.5290 177° South 184 212 2,800  Level FlightAware
07:23AM 49.9350 8.5300 178° South 190 219 3,200 1,140 Climbing FlightAware
07:23AM 49.9210 8.5310 177° South 203 234 3,500 1,200 Climbing FlightAware
07:24AM 49.8910 8.5320 179° South 234 269 4,100 1,380 Climbing FlightAware
07:24AM 49.8610 8.5280 185° South 256 295 4,800 1,680 Climbing FlightAware
07:25AM 49.8320 8.5120 200° South 266 306 5,600 1,980 Climbing FlightAware
07:25AM 49.8040 8.4960 200° South 277 319 6,400 1,980 Climbing FlightAware
07:25AM 49.7900 8.4870 203° Southwest 281 323 6,800 2,340 Climbing FlightAware
07:25AM 49.7730 8.4700 213° Southwest 277 319 7,500 2,520 Climbing FlightAware
07:26AM 49.7630 8.4510 231° Southwest 275 316 8,000 2,520 Climbing FlightAware
07:26AM 49.7570 8.4210 253° West 271 312 8,700 2,160 Climbing FlightAware
07:26AM 49.7610 8.3690 277° West 274 315 9,600 1,380 Climbing FlightAware
07:27AM 49.7770 8.2980 289° West 308 354 10,200 1,020 Climbing FlightAware
07:28AM 49.7780 8.1840 271° West 354 407 11,100 1,020 Climbing FlightAware
07:29AM 49.7690 8.0380 265° West 366 421 12,100 2,040 Climbing FlightAware
07:30AM 49.7630 7.9090 266° West 378 435 14,600 2,700 Climbing FlightAware
07:30AM 49.7570 7.7910 266° West 385 443 16,000 1,800 Climbing FlightAware
07:31AM 49.7510 7.6840 265° West 392 451 17,200 1,680 Climbing FlightAware
07:32AM 49.7450 7.5660 266° West 399 459 18,300 1,560 Climbing FlightAware
07:32AM 49.7390 7.4660 265° West 404 465 19,200 1,500 Climbing FlightAware
07:33AM 49.7330 7.3480 266° West 410 472 20,300 1,560 Climbing FlightAware
07:34AM 49.7250 7.2180 265° West 417 480 21,400 1,380 Climbing FlightAware
07:34AM 49.7190 7.1090 265° West 422 486 22,200 1,320 Climbing FlightAware
07:35AM 49.7120 6.9910 265° West 427 491 23,100 1,380 Climbing FlightAware
07:36AM 49.7020 6.8340 264° West 432 497 24,400 1,560 Climbing FlightAware
07:36AM 49.6940 6.7060 265° West 434 499 25,500 1,140 Climbing FlightAware
07:37AM 49.6860 6.5690 265° West 448 516 26,000 720 Climbing FlightAware
07:38AM 49.6790 6.4580 264° West 455 524 26,500 960 Climbing FlightAware
07:38AM 49.6690 6.3150 264° West 464 534 27,300 1,020 Climbing FlightAware
07:39AM 49.6600 6.1710 265° West 471 542 28,000 960 Climbing FlightAware
07:40AM 49.6520 6.0510 264° West 475 547 28,700 1,080 Climbing FlightAware
07:41AM 49.6400 5.8760 264° West 478 550 29,600 1,020 Climbing FlightAware
07:41AM 49.6310 5.7610 263° West 482 555 30,100 840 Climbing FlightAware
07:42AM 49.6200 5.6010 264° West 487 560 30,800 1,080 Climbing FlightAware
07:43AM 49.6090 5.4430 264° West 486 559 31,800 1,260 Climbing FlightAware
07:43AM 49.6010 5.3360 263° West 481 554 32,500 600 Climbing FlightAware
07:45AM 49.5690 5.0460 260° West 482 555 33,000 180 Climbing FlightAware
07:45AM 49.5510 4.9190 258° West 483 556 33,000  Level FlightAware
07:46AM 49.5280 4.7580 258° West 482 555 33,000  Level FlightAware
07:46AM 49.5237 4.7390 258° West 1 1 33,000  Level FlightAware UK
07:47AM 49.5080 4.6250 257° West 482 555 33,000  Level FlightAware
07:48AM 49.4833 4.4748 257° West 1 1 33,000  Level FlightAware UK
07:48AM 49.4830 4.4550 257° West 483 556 33,000  Level FlightAware
07:48AM 49.4646 4.3401 257° West 1 1 33,000  Level FlightAware UK
07:48AM 49.4670 4.3500 257° West 484 557 33,000 -180 Level FlightAware
07:49AM 49.4423 4.1964 257° West 1 1 32,900  Descending FlightAware UK
07:49AM 49.4430 4.1930 257° West 486 559 33,000 120 Climbing FlightAware
07:50AM 49.4230 4.0580 257° West 485 558 33,000  Level FlightAware
07:50AM 49.3990 3.9020 257° West 484 557 33,000  Level FlightAware
07:51AM 49.3810 3.7880 256° West 484 557 33,000  Level FlightAware
07:52AM 49.3580 3.6390 257° West 485 558 33,000  Level FlightAware
07:52AM 49.3380 3.5030 257° West 484 557 33,000  Level FlightAware
07:53AM 49.3270 3.3820 262° West 483 556 33,000 -120 Level FlightAware
07:54AM 49.3214 3.2703 262° West 1 1 32,900  Descending FlightAware UK
07:54AM 49.3220 3.2520 262° West 483 556 33,000 120 Climbing FlightAware
07:54AM 49.3170 3.1150 262° West 483 556 33,000 -180 Level FlightAware
07:54AM 49.3146 3.1032 262° West 1 1 32,900 -180 Descending FlightAware UK
07:55AM 49.3101 2.9814 262° West 1 1 32,900 120 Level FlightAware UK
07:55AM 49.3110 2.9730 262° West 483 556 33,000 120 Climbing FlightAware
07:56AM 49.3070 2.8520 267° West 484 557 33,000  Level FlightAware
07:56AM 49.3000 2.6840 266° West 484 557 33,000  Level FlightAware
07:57AM 49.2950 2.5590 267° West 484 557 33,000 -120 Level FlightAware
07:58AM 49.2931 2.4522 267° West 484 557 32,900  Descending FlightAware UK
07:58AM 49.2890 2.4050 267° West 485 558 33,000 60 Climbing FlightAware
07:58AM 49.2830 2.2670 266° West 486 559 33,000  Level FlightAware
07:59AM 49.2780 2.1330 267° West 486 559 33,000  Level FlightAware
08:00AM 49.2720 2.0060 266° West 486 559 33,000 -120 Level FlightAware
08:00AM 49.2692 1.9194 267° West 484 557 32,900  Descending FlightAware UK
08:01AM 49.2635 1.7969 266° West 484 557 33,000 60 Climbing FlightAware UK
08:02AM 49.2545 1.6114 266° West 484 557 33,000  Level FlightAware UK
08:02AM 49.2550 1.6400 266° West 486 559 33,000  Level FlightAware
08:02AM 49.2470 1.4820 266° West 487 560 33,000  Level FlightAware
08:03AM 49.2410 1.3650 266° West 487 560 33,000  Level FlightAware
08:04AM 49.2340 1.2330 265° West 488 562 33,000  Level FlightAware
08:04AM 49.2260 1.0730 265° West 488 562 33,000  Level FlightAware
08:04AM 49.2255 1.0571 265° West 484 557 33,000  Level FlightAware UK
08:05AM 49.2187 0.9342 265° West 484 557 33,000  Level FlightAware UK
08:05AM 49.2180 0.9230 265° West 489 563 33,000  Level FlightAware
08:06AM 49.2100 0.7780 265° West 489 563 33,000  Level FlightAware
08:06AM 49.2020 0.6350 265° West 490 564 33,000  Level FlightAware
08:07AM 49.1940 0.5040 265° West 490 564 33,000  Level FlightAware
08:07AM 49.1929 0.4810 265° West 484 557 33,000  Level FlightAware UK
08:08AM 49.1866 0.3775 265° West 484 557 33,000  Level FlightAware UK
08:08AM 49.1810 0.2910 265° West 490 564 33,000  Level FlightAware
08:09AM 49.1730 0.1570 265° West 491 565 33,000  Level FlightAware
08:09AM 49.1640 0.0020 265° West 492 566 33,000  Level FlightAware
08:10AM 49.1540 -0.1430 264° West 492 566 33,000  Level FlightAware
08:11AM 49.1470 -0.2620 265° West 492 566 33,000  Level FlightAware
08:11AM 49.1400 -0.3700 264° West 492 566 33,000  Level FlightAware
08:12AM 49.1280 -0.5570 264° West 492 566 33,000  Level FlightAware
08:13AM 49.1190 -0.6960 264° West 492 566 33,000  Level FlightAware
08:13AM 49.1106 -0.8204 264° West 486 559 33,000  Level FlightAware UK
08:13AM 49.1110 -0.8240 264° West 492 566 33,000  Level FlightAware
08:14AM 49.0990 -1.0020 264° West 492 566 33,000  Level FlightAware
08:15AM 49.0900 -1.1320 264° West 492 566 33,000  Level FlightAware
08:16AM 49.0810 -1.2790 265° West 491 565 33,000  Level FlightAware
08:16AM 49.0720 -1.4200 264° West 491 565 33,000  Level FlightAware
08:17AM 49.0610 -1.5690 264° West 491 565 33,000  Level FlightAware
08:18AM 49.0520 -1.7170 265° West 491 565 33,000  Level FlightAware
08:18AM 49.0420 -1.8620 264° West 493 567 33,000  Level FlightAware
08:19AM 49.0330 -1.9737 264° West 490 564 33,000  Level FlightAware UK
08:19AM 49.0310 -2.0150 264° West 500 575 33,000  Level FlightAware
08:20AM 49.0299 -2.1864 264° West 492 566 33,000  Level FlightAware UK
08:20AM 49.0350 -2.2110 264° West 510 587 33,000  Level FlightAware
08:21AM 49.0680 -2.3440 291° West 514 592 33,000 120 Level FlightAware
08:22AM 49.1080 -2.4910 293° West 515 593 33,200 600 Climbing FlightAware
08:22AM 49.1440 -2.6230 293° West 507 583 33,900 600 Climbing FlightAware
08:23AM 49.1760 -2.7400 293° West 505 581 34,000 360 Climbing FlightAware
08:23AM 49.2090 -2.8647 293° West 482 555 34,400 900 Climbing FlightAware UK
08:23AM 49.2120 -2.8760 293° West 501 577 34,600 960 Climbing FlightAware
08:24AM 49.2510 -3.0230 292° West 501 577 35,200 660 Climbing FlightAware
08:25AM 49.2720 -3.0990 293° West 502 578 35,400 600 Climbing FlightAware
08:25AM 49.3110 -3.2460 292° West 503 579 35,900 420 Climbing FlightAware
08:26AM 49.3445 -3.3760 292° West 478 550 36,000 120 Climbing FlightAware UK
08:26AM 49.3490 -3.3920 292° West 505 581 36,000  Level FlightAware
08:27AM 49.3810 -3.5140 292° West 504 580 36,000  Level FlightAware
08:27AM 49.4180 -3.6560 292° West 504 580 36,000  Level FlightAware
08:28AM 49.4530 -3.7900 292° West 505 581 36,000 -120 Level FlightAware
08:29AM 49.4815 -3.8921 292° West 476 548 35,900  Descending FlightAware UK
08:29AM 49.4880 -3.9120 292° West 507 583 36,000 60 Climbing FlightAware
08:29AM 49.5330 -4.0660 294° West 507 583 36,000  Level FlightAware
08:30AM 49.5640 -4.1710 295° West 506 582 36,000  Level FlightAware
08:31AM 49.6030 -4.3090 294° West 506 582 36,000  Level FlightAware
08:31AM 49.6440 -4.4560 293° West 507 583 36,000  Level FlightAware
08:32AM 49.6760 -4.5700 293° West 507 583 36,000  Level FlightAware
08:33AM 49.7184 -4.7215 293° West 476 548 36,000  Level FlightAware UK
08:33AM 49.7280 -4.7570 293° West 508 585 36,000  Level FlightAware
08:34AM 49.7640 -4.8850 294° West 508 585 36,000  Level FlightAware
08:34AM 49.7970 -5.0060 293° West 508 585 36,000  Level FlightAware
08:35AM 49.8360 -5.1470 293° West 509 586 36,000  Level FlightAware
08:36AM 49.8760 -5.2920 293° West 510 587 36,000  Level FlightAware
08:36AM 49.9130 -5.4290 293° West 510 587 36,000  Level FlightAware
08:37AM 49.9510 -5.5730 292° West 510 587 36,000  Level FlightAware
08:38AM 49.9872 -5.7064 292° West 478 550 36,000  Level FlightAware UK
08:38AM 49.9870 -5.7060 292° West 511 588 36,000  Level FlightAware
08:38AM 50.0280 -5.8600 293° West 510 587 36,000  Level FlightAware
08:39AM 50.0580 -5.9720 293° West 510 587 36,000  Level FlightAware
08:40AM 50.0980 -6.1240 292° West 510 587 36,000  Level FlightAware
08:40AM 50.1266 -6.2342 292° West 478 550 36,000  Level FlightAware UK
08:40AM 50.1330 -6.2570 292° West 510 587 36,000  Level FlightAware
08:41AM 50.1720 -6.4080 292° West 511 588 36,000  Level FlightAware
08:42AM 50.2080 -6.5460 292° West 510 587 36,000  Level FlightAware
08:42AM 50.2429 -6.6836 292° West 478 550 36,000  Level FlightAware UK
08:42AM 50.2430 -6.6860 292° West 510 587 36,000  Level FlightAware
08:43AM 50.2810 -6.8340 292° West 509 586 36,000  Level FlightAware
08:44AM 50.3130 -6.9580 292° West 509 586 36,000  Level FlightAware
08:44AM 50.3470 -7.0950 291° West 509 586 36,000  Level FlightAware
08:45AM 50.3774 -7.2164 291° West 478 550 36,000  Level FlightAware UK
08:45AM 50.3850 -7.2450 291° West 509 586 36,000  Level FlightAware
08:46AM 50.4140 -7.3610 291° West 508 585 36,000  Level FlightAware
08:46AM 50.4480 -7.4980 291° West 508 585 36,000  Level FlightAware
08:47AM 50.4794 -7.6273 291° West 478 550 36,000  Level FlightAware UK
08:47AM 50.4820 -7.6360 291° West 506 582 36,000  Level FlightAware
08:48AM 50.5150 -7.7720 291° West 505 581 36,000  Level FlightAware
08:49AM 50.5544 -7.9349 291° West 480 552 36,000  Level FlightAware UK
08:49AM 50.5550 -7.9370 291° West 503 579 36,000  Level FlightAware
08:49AM 50.5837 -8.0579 291° West 480 552 36,000  Level FlightAware UK
08:49AM 50.5850 -8.0630 291° West 501 577 36,000  Level FlightAware
08:50AM 50.6220 -8.2140 291° West 500 575 36,000  Level FlightAware
08:51AM 50.6550 -8.3550 290° West 498 573 36,000  Level FlightAware
08:51AM 50.6856 -8.4845 290° West 478 550 36,000  Level FlightAware UK
08:51AM 50.6910 -8.5080 290° West 496 571 36,000  Level FlightAware
08:52AM 50.7270 -8.6610 290° West 494 568 36,000  Level FlightAware
08:53AM 50.7566 -8.7884 290° West 478 550 36,000  Level FlightAware UK
08:53AM 50.7560 -8.7830 290° West 490 564 36,000  Level FlightAware
08:53AM 50.7880 -8.9210 290° West 490 564 36,000  Level FlightAware
08:54AM 50.8230 -9.0720 290° West 488 562 36,000  Level FlightAware
08:55AM 50.8600 -9.2390 289° West 485 558 36,000  Level FlightAware
08:56AM 50.8980 -9.4030 290° West 483 556 36,000  Level FlightAware
08:57AM 50.9300 -9.5510 289° West 483 556 36,000  Level FlightAware
08:57AM 50.9670 -9.7090 290° West 479 551 36,000  Level FlightAware
08:58AM 50.9910 -9.8180 289° West 479 551 36,000  Level FlightAware
08:59AM 51.0200 -9.9490 289° West 476 548 36,000  Level FlightAware
08:59AM 51.0430 -10.0620 288° West 476 548 36,000  Level FlightAware
09:00AM 51.0800 -10.2240 290° West 477 549 36,000  Level FlightAware
09:01AM 51.1040 -10.3370 289° West 474 545 36,000  Level FlightAware
09:01AM 51.1400 -10.5000 289° West 474 545 36,000  Level FlightAware
09:02AM 51.1650 -10.6210 288° West 475 547 36,000  Level FlightAware
09:03AM 51.2170 -10.8680 289° West 474 545 36,000 180 Level FlightAware
09:04AM 51.2680 -11.1100 289° West 472 543 36,500 480 Climbing FlightAware
09:05AM 51.2970 -11.2460 289° West 473 544 36,900 300 Climbing FlightAware
09:06AM 51.3300 -11.4120 288° West 473 544 37,000 60 Climbing FlightAware
09:07AM 51.3510 -11.5140 288° West 473 544 37,000  Level FlightAware
09:08AM 51.3790 -11.6520 288° West 473 544 37,000  Level FlightAware
09:08AM 51.4000 -11.7550 288° West 473 544 37,000  Level FlightAware
09:09AM 51.4340 -11.9250 288° West 473 544 37,000  Level FlightAware
09:10AM 51.4540 -12.0210 289° West 473 544 37,000  Level FlightAware
09:10AM 51.5080 -12.2960 288° West 470 541 37,000  Level FlightAware
09:11AM 51.5370 -12.4450 287° West 469 540 37,000  Level FlightAware
09:12AM 51.5630 -12.5910 286° West 469 540 37,000  Level FlightAware
09:13AM 51.5810 -12.6940 286° West 469 540 37,000  Level FlightAware
09:13AM 51.6070 -12.8360 286° West 469 540 37,000  Level FlightAware
09:14AM 51.6310 -12.9730 286° West 469 540 37,000  Level FlightAware
09:15AM 51.6490 -13.0760 286° West 469 540 37,000  Level FlightAware
09:16AM 51.6740 -13.2140 286° West 469 540 37,000  Level FlightAware
09:16AM 51.6990 -13.3540 286° West 469 540 37,000  Level FlightAware
09:17AM 51.7170 -13.4570 286° West 469 540 37,000  Level FlightAware
09:18AM 51.7410 -13.5940 286° West 469 540 37,000  Level FlightAware
09:18AM 51.7600 -13.6970 287° West 469 540 37,000  Level FlightAware
09:19AM 51.7840 -13.8350 286° West 469 540 37,000  Level FlightAware
09:20AM 51.8020 -13.9380 286° West 469 540 37,000  Level FlightAware
09:21AM 51.8270 -14.0760 286° West 469 540 37,000  Level FlightAware
09:21AM 51.8460 -14.1820 286° West 469 540 37,000  Level FlightAware
09:24AM 51.9337 -14.5922 289° West  Level Estimated
09:25AM 51.9725 -14.7764 289° West  Level Estimated
09:26AM 52.0110 -14.9609 289° West  Level Estimated
09:27AM 52.0492 -15.1458 289° West  Level Estimated
09:28AM 52.0872 -15.3309 289° West  Level Estimated
09:29AM 52.1248 -15.5164 288° West  Level Estimated
09:30AM 52.1622 -15.7022 288° West  Level Estimated
09:31AM 52.1992 -15.8883 288° West  Level Estimated
09:32AM 52.2360 -16.0746 288° West  Level Estimated
09:33AM 52.2725 -16.2614 288° West  Level Estimated
09:34AM 52.3087 -16.4484 288° West  Level Estimated
09:35AM 52.3445 -16.6357 287° West  Level Estimated
09:36AM 52.3801 -16.8233 287° West  Level Estimated
09:37AM 52.4154 -17.0112 287° West  Level Estimated
09:38AM 52.4504 -17.1994 287° West  Level Estimated
09:39AM 52.4851 -17.3880 287° West  Level Estimated
09:40AM 52.5249 -17.6070 287° West  Level Estimated
09:41AM 52.5644 -17.8264 287° West  Level Estimated
09:42AM 52.6035 -18.0462 286° West  Level Estimated
09:43AM 52.6421 -18.2664 286° West  Level Estimated
09:44AM 52.6803 -18.4869 286° West  Level Estimated
09:45AM 52.7181 -18.7079 286° West  Level Estimated
09:46AM 52.7556 -18.9293 286° West  Level Estimated
09:47AM 52.7925 -19.1510 286° West  Level Estimated
09:48AM 52.8291 -19.3731 285° West  Level Estimated
09:49AM 52.8653 -19.5956 285° West  Level Estimated
09:50AM 52.9011 -19.8184 285° West  Level Estimated
09:51AM 52.9364 -20.0416 285° West  Level Estimated
09:51AM 51.0000 -20.0000 265° West 463 533 37,000  Level ETMS Enhanced Traffic Management System
09:52AM 52.9704 -20.2595 285° West  Level Estimated
09:53AM 53.0041 -20.4777 284° West  Level Estimated
09:54AM 53.0373 -20.6963 284° West  Level Estimated
09:55AM 53.0701 -20.9152 284° West  Level Estimated
09:56AM 53.1026 -21.1345 284° West  Level Estimated
09:57AM 50.9121 -21.4231 264° West 463 533 37,000  Level FlightAware Transoceanic
09:58AM 50.8981 -21.6259 264° West 463 533 37,000  Level FlightAware Transoceanic
09:59AM 50.8838 -21.8287 264° West 463 533 37,000  Level FlightAware Transoceanic
10:00AM 50.8691 -22.0312 263° West 463 533 37,000  Level FlightAware Transoceanic
10:01AM 50.8541 -22.2337 263° West 463 533 37,000  Level FlightAware Transoceanic
10:02AM 50.8387 -22.4361 263° West 463 533 37,000  Level FlightAware Transoceanic
10:03AM 50.8230 -22.6382 263° West 463 533 37,000  Level FlightAware Transoceanic
10:04AM 50.8069 -22.8403 263° West 463 533 37,000  Level FlightAware Transoceanic
10:05AM 50.7905 -23.0422 263° West 463 533 37,000  Level FlightAware Transoceanic
10:06AM 50.7737 -23.2440 262° West 463 533 37,000  Level FlightAware Transoceanic
10:07AM 50.7566 -23.4456 262° West 463 533 37,000  Level FlightAware Transoceanic
10:08AM 50.7391 -23.6471 262° West 463 533 37,000  Level FlightAware Transoceanic
10:09AM 50.7213 -23.8484 262° West 463 533 37,000  Level FlightAware Transoceanic
10:10AM 50.7031 -24.0496 262° West 463 533 37,000  Level FlightAware Transoceanic
10:11AM 50.6846 -24.2506 262° West 463 533 37,000  Level FlightAware Transoceanic
10:12AM 50.6658 -24.4515 261° West 463 533 37,000  Level FlightAware Transoceanic
10:13AM 50.6466 -24.6522 261° West 463 533 37,000  Level FlightAware Transoceanic
10:14AM 50.6270 -24.8527 261° West 463 533 37,000  Level FlightAware Transoceanic
10:15AM 50.6072 -25.0531 261° West 463 533 37,000  Level FlightAware Transoceanic
10:16AM 50.5869 -25.2533 261° West 463 533 37,000  Level FlightAware Transoceanic
10:17AM 50.5664 -25.4533 261° West 463 533 37,000  Level FlightAware Transoceanic
10:18AM 50.5454 -25.6531 261° West 463 533 37,000  Level FlightAware Transoceanic
10:19AM 50.5242 -25.8528 260° West 463 533 37,000  Level FlightAware Transoceanic
10:20AM 50.5026 -26.0523 260° West 463 533 37,000  Level FlightAware Transoceanic
10:21AM 50.4807 -26.2516 260° West 463 533 37,000  Level FlightAware Transoceanic
10:22AM 50.4584 -26.4507 260° West 463 533 37,000  Level FlightAware Transoceanic
10:23AM 50.4358 -26.6496 260° West 463 533 37,000  Level FlightAware Transoceanic
10:24AM 50.4128 -26.8483 260° West 463 533 37,000  Level FlightAware Transoceanic
10:25AM 50.3895 -27.0469 259° West 463 533 37,000  Level FlightAware Transoceanic
10:26AM 50.3659 -27.2452 259° West 463 533 37,000  Level FlightAware Transoceanic
10:27AM 50.3419 -27.4433 259° West 463 533 37,000  Level FlightAware Transoceanic
10:28AM 50.3176 -27.6413 259° West 463 533 37,000  Level FlightAware Transoceanic
10:29AM 50.2930 -27.8390 259° West 463 533 37,000  Level FlightAware Transoceanic
10:30AM 50.2680 -28.0365 259° West 463 533 37,000  Level FlightAware Transoceanic
10:31AM 50.2427 -28.2339 259° West 463 533 37,000  Level FlightAware Transoceanic
10:32AM 50.2171 -28.4310 258° West 463 533 37,000  Level FlightAware Transoceanic
10:33AM 50.1911 -28.6279 258° West 463 533 37,000  Level FlightAware Transoceanic
10:34AM 50.1648 -28.8246 258° West 463 533 37,000  Level FlightAware Transoceanic
10:35AM 50.1381 -29.0210 258° West 463 533 37,000  Level FlightAware Transoceanic
10:36AM 50.1112 -29.2173 258° West 463 533 37,000  Level FlightAware Transoceanic
10:37AM 50.0839 -29.4133 258° West 463 533 37,000  Level FlightAware Transoceanic
10:38AM 50.0563 -29.6091 258° West 463 533 37,000  Level FlightAware Transoceanic
10:39AM 50.0283 -29.8047 257° West 463 533 37,000  Level FlightAware Transoceanic
10:40AM 49.9985 -30.0105 257° West  Level FlightAware Approximate
10:41AM 49.9967 -30.0210 256° West  Level FlightAware Approximate
10:42AM 49.9644 -30.2258 256° West  Level FlightAware Approximate
10:43AM 49.9318 -30.4304 256° West  Level FlightAware Approximate
10:44AM 49.8988 -30.6347 256° West  Level FlightAware Approximate
10:45AM 49.8655 -30.8387 256° West  Level FlightAware Approximate
10:46AM 49.8318 -31.0424 256° West  Level FlightAware Approximate
10:47AM 49.7977 -31.2459 256° West  Level FlightAware Approximate
10:48AM 49.7633 -31.4490 255° West  Level FlightAware Approximate
10:49AM 49.7285 -31.6519 255° West  Level FlightAware Approximate
10:50AM 49.6934 -31.8545 255° West  Level FlightAware Approximate
10:51AM 49.6579 -32.0567 255° West  Level FlightAware Approximate
10:52AM 49.6221 -32.2587 255° West  Level FlightAware Approximate
10:53AM 49.5859 -32.4604 255° West  Level FlightAware Approximate
10:54AM 49.5502 -32.6621 255° West  Level FlightAware Approximate
10:55AM 49.5152 -32.8640 255° West  Level FlightAware Approximate
10:56AM 49.4798 -33.0656 255° West  Level FlightAware Approximate
10:57AM 49.4441 -33.2669 255° West  Level FlightAware Approximate
10:58AM 49.4080 -33.4679 255° West  Level FlightAware Approximate
10:59AM 49.3716 -33.6686 254° West  Level FlightAware Approximate
11:00AM 49.3348 -33.8690 254° West  Level FlightAware Approximate
11:01AM 49.2977 -34.0691 254° West  Level FlightAware Approximate
11:02AM 49.2602 -34.2688 254° West  Level FlightAware Approximate
11:03AM 49.2224 -34.4683 254° West  Level FlightAware Approximate
11:04AM 49.1842 -34.6675 254° West  Level FlightAware Approximate
11:05AM 49.1457 -34.8664 254° West  Level FlightAware Approximate
11:06AM 49.1069 -35.0649 253° West  Level FlightAware Approximate
11:07AM 49.0668 -35.2628 253° West  Level FlightAware Approximate
11:08AM 49.0261 -35.4602 253° West  Level FlightAware Approximate
11:09AM 48.9851 -35.6572 252° West  Level FlightAware Approximate
11:10AM 48.9437 -35.8540 252° West  Level FlightAware Approximate
11:11AM 48.9021 -36.0504 252° West  Level FlightAware Approximate
11:12AM 48.8601 -36.2464 252° West  Level FlightAware Approximate
11:13AM 48.8177 -36.4422 252° West  Level FlightAware Approximate
11:14AM 48.7751 -36.6376 252° West  Level FlightAware Approximate
11:15AM 48.7321 -36.8327 252° West  Level FlightAware Approximate
11:16AM 48.6887 -37.0275 251° West  Level FlightAware Approximate
11:17AM 48.6451 -37.2219 251° West  Level FlightAware Approximate
11:18AM 48.6011 -37.4160 251° West  Level FlightAware Approximate
11:19AM 48.5572 -37.6099 252° West  Level FlightAware Approximate
11:20AM 48.5142 -37.8041 252° West  Level FlightAware Approximate
11:21AM 48.4708 -37.9981 251° West  Level FlightAware Approximate
11:22AM 48.4272 -38.1917 251° West  Level FlightAware Approximate
11:23AM 48.3832 -38.3849 251° West  Level FlightAware Approximate
11:24AM 48.3389 -38.5778 251° West  Level FlightAware Approximate
11:25AM 48.2943 -38.7704 251° West  Level FlightAware Approximate
11:26AM 48.2494 -38.9627 251° West  Level FlightAware Approximate
11:27AM 48.2042 -39.1546 251° West  Level FlightAware Approximate
11:28AM 48.1586 -39.3461 250° West  Level FlightAware Approximate
11:29AM 48.1127 -39.5374 250° West  Level FlightAware Approximate
11:30AM 48.0665 -39.7283 250° West  Level FlightAware Approximate
11:31AM 48.0200 -39.9188 250° West  Level FlightAware Approximate
11:32AM 47.9829 -40.1133 257° West  Level FlightAware Approximate
11:33AM 47.9528 -40.3108 257° West  Level FlightAware Approximate
11:34AM 47.9223 -40.5081 257° West  Level FlightAware Approximate
11:35AM 47.8915 -40.7051 257° West  Level FlightAware Approximate
11:36AM 47.8604 -40.9019 257° West  Level FlightAware Approximate
11:37AM 47.8289 -41.0984 257° West  Level FlightAware Approximate
11:38AM 47.7972 -41.2944 257° West  Level FlightAware Approximate
11:39AM 47.7651 -41.4901 256° West  Level FlightAware Approximate
11:40AM 47.7327 -41.6856 256° West  Level FlightAware Approximate
11:41AM 47.6999 -41.8808 256° West  Level FlightAware Approximate
11:42AM 47.6669 -42.0758 256° West  Level FlightAware Approximate
11:43AM 47.6335 -42.2705 256° West  Level FlightAware Approximate
11:44AM 47.5997 -42.4650 256° West  Level FlightAware Approximate
11:45AM 47.5657 -42.6592 255° West  Level FlightAware Approximate
11:46AM 47.5313 -42.8532 255° West  Level FlightAware Approximate
11:47AM 47.4966 -43.0469 255° West  Level FlightAware Approximate
11:48AM 47.4615 -43.2403 255° West  Level FlightAware Approximate
11:49AM 47.4262 -43.4336 255° West  Level FlightAware Approximate
11:50AM 47.3905 -43.6265 255° West  Level FlightAware Approximate
11:51AM 47.3545 -43.8192 255° West  Level FlightAware Approximate
11:52AM 47.3181 -44.0116 255° West  Level FlightAware Approximate
11:53AM 47.2815 -44.2037 254° West  Level FlightAware Approximate
11:54AM 47.2445 -44.3956 254° West  Level FlightAware Approximate
11:55AM 47.2072 -44.5872 254° West  Level FlightAware Approximate
11:56AM 47.1696 -44.7786 254° West  Level FlightAware Approximate
11:57AM 47.1317 -44.9696 254° West  Level FlightAware Approximate
11:58AM 47.0934 -45.1604 254° West  Level FlightAware Approximate
11:59AM 47.0549 -45.3509 254° West  Level FlightAware Approximate
12:00PM 47.0160 -45.5412 253° West  Level FlightAware Approximate
12:01PM 46.9768 -45.7312 253° West  Level FlightAware Approximate
12:02PM 46.9373 -45.9208 253° West  Level FlightAware Approximate
12:03PM 46.8975 -46.1103 253° West  Level FlightAware Approximate
12:04PM 46.8573 -46.2994 253° West  Level FlightAware Approximate
12:05PM 46.8169 -46.4882 253° West  Level FlightAware Approximate
12:06PM 46.7761 -46.6768 253° West  Level FlightAware Approximate
12:07PM 46.7351 -46.8651 252° West  Level FlightAware Approximate
12:08PM 46.6937 -47.0530 252° West  Level FlightAware Approximate
12:09PM 46.6520 -47.2407 252° West  Level FlightAware Approximate
12:10PM 46.6100 -47.4281 252° West  Level FlightAware Approximate
12:11PM 46.5677 -47.6152 252° West  Level FlightAware Approximate
12:12PM 46.5251 -47.8021 252° West  Level FlightAware Approximate
12:13PM 46.4822 -47.9886 252° West  Level FlightAware Approximate
12:14PM 46.4390 -48.1748 251° West  Level FlightAware Approximate
12:15PM 46.3955 -48.3607 251° West  Level FlightAware Approximate
12:16PM 46.3517 -48.5464 251° West  Level FlightAware Approximate
12:17PM 46.3076 -48.7317 251° West  Level FlightAware Approximate
12:18PM 46.2632 -48.9168 251° West  Level FlightAware Approximate
12:19PM 46.2185 -49.1015 251° West  Level FlightAware Approximate
12:20PM 46.1735 -49.2859 251° West  Level FlightAware Approximate
12:21PM 46.1282 -49.4701 251° West  Level FlightAware Approximate
12:22PM 46.0826 -49.6539 250° West  Level FlightAware Approximate
12:23PM 46.0368 -49.8374 250° West  Level FlightAware Approximate
12:24PM 45.9964 -50.0224 257° West  Level FlightAware Approximate
12:25PM 45.9655 -50.2121 257° West  Level FlightAware Approximate
12:26PM 45.9342 -50.4015 257° West  Level FlightAware Approximate
12:27PM 45.9027 -50.5907 257° West  Level FlightAware Approximate
12:28PM 45.8709 -50.7798 256° West  Level FlightAware Approximate
12:29PM 45.8387 -50.9685 256° West  Level FlightAware Approximate
12:30PM 45.8078 -51.1576 257° West  Level FlightAware Approximate
12:31PM 45.7768 -51.3466 257° West  Level FlightAware Approximate
12:32PM 45.7456 -51.5354 257° West  Level FlightAware Approximate
12:32PM 45.9833 -50.0500 264° West 480 552 37,000  Level Gander Center
12:33PM 45.7140 -51.7240 257° West  Level FlightAware Approximate
12:33PM 45.9500 -50.2500 257° West 470 541 37,000  Level Gander Center
12:34PM 45.6821 -51.9123 256° West  Level FlightAware Approximate
12:34PM 45.9333 -50.4167 262° West 470 541 37,000  Level Gander Center
12:35PM 45.6497 -52.1038 264° West  Level FlightAware Approximate
12:35PM 45.9167 -50.6167 263° West 470 541 37,000  Level Gander Center
12:36PM 45.6352 -52.2997 264° West  Level FlightAware Approximate
12:36PM 45.9167 -50.8000 270° West 470 541 37,000  Level Gander Center
12:37PM 45.6203 -52.4955 264° West  Level FlightAware Approximate
12:37PM 45.9000 -50.9833 263° West 470 541 37,000  Level Gander Center
12:38PM 45.8833 -51.1833 263° West 470 541 37,000  Level Gander Center
12:39PM 45.8667 -51.3500 262° West 470 541 37,000  Level Gander Center
12:40PM 45.8500 -51.5500 263° West 480 552 37,000  Level Gander Center
12:41PM 45.8500 -51.7333 270° West 480 552 37,000  Level Gander Center
12:46PM 45.7650 -52.8460 270° West 487 560 37,000  Level FlightAware
12:47PM 45.7550 -52.9460 262° West 487 560 37,000  Level FlightAware
12:48PM 45.7400 -53.1180 263° West 488 562 37,000  Level FlightAware
12:48PM 45.7310 -53.2160 263° West 488 562 37,000  Level FlightAware
12:49PM 45.7170 -53.3500 262° West 488 562 37,000  Level FlightAware
12:50PM 45.7030 -53.5260 264° West 489 563 37,000  Level FlightAware
12:51PM 45.6900 -53.6600 262° West 490 564 37,000 120 Level FlightAware
12:51PM 45.6770 -53.7880 262° West 487 560 37,200 120 Climbing FlightAware
12:52PM 45.6660 -53.9030 262° West 485 558 37,200 300 Level FlightAware
12:53PM 45.6500 -54.0610 262° West 479 551 37,700 480 Climbing FlightAware
12:53PM 45.6380 -54.1870 262° West 477 549 37,900 180 Climbing FlightAware
12:54PM 45.6250 -54.3190 262° West 479 551 38,000 60 Climbing FlightAware
12:55PM 45.6130 -54.4340 262° West 479 551 38,000  Level FlightAware
12:55PM 45.5970 -54.5860 261° West 479 551 38,000  Level FlightAware
12:56PM 45.5830 -54.7130 261° West 480 552 38,000  Level FlightAware
12:57PM 45.5720 -54.8200 262° West 480 552 38,000  Level FlightAware
12:58PM 45.5580 -54.9450 261° West 480 552 38,000  Level FlightAware
12:58PM 45.5470 -55.0410 261° West 480 552 38,000  Level FlightAware
12:59PM 45.5330 -55.1680 261° West 480 552 38,000  Level FlightAware
01:00PM 45.5110 -55.3750 261° West 479 551 38,000  Level FlightAware
01:01PM 45.4880 -55.5680 260° West 480 552 38,000  Level FlightAware
01:01PM 45.4770 -55.6630 261° West 480 552 38,000  Level FlightAware
01:02PM 45.4610 -55.7880 260° West 480 552 38,000  Level FlightAware
01:03PM 45.4490 -55.8830 260° West 480 552 38,000  Level FlightAware
01:04PM 45.4330 -56.0130 260° West 480 552 38,000  Level FlightAware
01:04PM 45.4220 -56.1080 261° West 480 552 38,000  Level FlightAware
01:05PM 45.3960 -56.3690 262° West 480 552 38,000  Level FlightAware
01:06PM 45.3820 -56.4750 259° West 480 552 38,000  Level FlightAware
01:07PM 45.3670 -56.6020 261° West 480 552 38,000  Level FlightAware
01:07PM 45.3550 -56.6970 260° West 480 552 38,000  Level FlightAware
01:08PM 45.3400 -56.8190 260° West 480 552 38,000  Level FlightAware
01:08PM 45.3280 -56.9140 260° West 480 552 38,000  Level FlightAware
01:09PM 45.2980 -57.1540 260° West 479 551 38,000  Level FlightAware
01:10PM 45.2810 -57.2810 259° West 479 551 38,000  Level FlightAware
01:11PM 45.2660 -57.3970 260° West 480 552 38,000  Level FlightAware
01:11PM 45.2530 -57.4990 260° West 480 552 38,000  Level FlightAware
01:12PM 45.2290 -57.6780 259° West 480 552 38,000  Level FlightAware
01:13PM 45.2120 -57.8020 259° West 480 552 38,000  Level FlightAware
01:13PM 45.1950 -57.9310 259° West 479 551 38,000  Level FlightAware
01:14PM 45.1770 -58.0600 259° West 479 551 38,000  Level FlightAware
01:15PM 45.1600 -58.1840 259° West 479 551 38,000  Level FlightAware
01:15PM 45.1430 -58.3070 259° West 480 552 38,000  Level FlightAware
01:16PM 45.1250 -58.4360 259° West 480 552 38,000  Level FlightAware
01:17PM 45.1080 -58.5580 259° West 480 552 38,000  Level FlightAware
01:18PM 45.0900 -58.6870 259° West 477 549 38,000  Level FlightAware
01:18PM 45.0720 -58.8090 258° West 474 545 38,000  Level FlightAware
01:19PM 45.0530 -58.9440 259° West 474 545 38,000  Level FlightAware
01:20PM 45.0340 -59.0690 258° West 475 547 38,000  Level FlightAware
01:20PM 45.0230 -59.2030 263° West 469 540 38,000  Level FlightAware
01:21PM 45.0200 -59.3260 268° West 469 540 38,000  Level FlightAware
01:22PM 45.0170 -59.4410 268° West 469 540 38,000 300 Level FlightAware
01:22PM 45.0140 -59.5820 268° West 464 534 38,500 540 Climbing FlightAware
01:23PM 45.0110 -59.7020 268° West 468 539 38,800 540 Climbing FlightAware
01:24PM 45.0080 -59.8300 268° West 468 539 39,300 600 Climbing FlightAware
01:24PM 45.0050 -59.9500 268° West 468 539 39,700 480 Climbing FlightAware
01:25PM 45.0010 -60.0740 267° West 468 539 40,000 180 Climbing FlightAware
01:26PM 44.9970 -60.2200 268° West 470 541 40,000  Level FlightAware
01:27PM 44.9940 -60.3490 268° West 469 540 40,000  Level FlightAware
01:27PM 44.9900 -60.4590 267° West 469 540 40,000  Level FlightAware
01:28PM 44.9860 -60.5820 267° West 469 540 40,000  Level FlightAware
01:29PM 44.9820 -60.7150 268° West 467 537 40,000  Level FlightAware
01:29PM 44.9780 -60.8300 267° West 466 536 40,000  Level FlightAware
01:30PM 44.9740 -60.9480 267° West 466 536 40,000  Level FlightAware
01:31PM 44.9670 -61.1300 267° West 466 536 40,000  Level FlightAware
01:32PM 44.9640 -61.2230 267° West 466 536 40,000  Level FlightAware
01:33PM 44.9580 -61.3810 267° West 466 536 40,000  Level FlightAware
01:33PM 44.9540 -61.4760 267° West 466 536 40,000  Level FlightAware
01:34PM 44.9510 -61.5720 268° West 466 536 40,000  Level FlightAware
01:35PM 44.9460 -61.6960 267° West 466 536 40,000  Level FlightAware
01:35PM 44.9420 -61.8150 267° West 466 536 40,000  Level FlightAware
01:36PM 44.9380 -61.9080 267° West 466 536 40,000  Level FlightAware
01:37PM 44.9350 -62.0040 268° West 466 536 40,000  Level FlightAware
01:37PM 44.9310 -62.1020 267° West 466 536 40,000  Level FlightAware
01:38PM 44.9260 -62.2260 267° West 466 536 40,000  Level FlightAware
01:39PM 44.9220 -62.3450 267° West 466 536 40,000  Level FlightAware
01:40PM 44.9170 -62.4690 267° West 466 536 40,000  Level FlightAware
01:41PM 44.8900 -62.8690 265° West 465 535 40,000  Level FlightAware
01:41PM 44.8840 -62.9870 266° West 466 536 40,000  Level FlightAware
01:42PM 44.8770 -63.1040 265° West 466 536 40,000  Level FlightAware
01:43PM 44.8680 -63.2700 266° West 466 536 40,000  Level FlightAware
01:44PM 44.8610 -63.4060 266° West 468 539 40,000  Level FlightAware
01:44PM 44.8530 -63.5290 265° West 468 539 40,000  Level FlightAware
01:45PM 44.8460 -63.6540 266° West 467 537 40,000  Level FlightAware
01:46PM 44.8380 -63.7930 265° West 467 537 40,000  Level FlightAware
01:46PM 44.8300 -63.9140 265° West 467 537 40,000  Level FlightAware
01:47PM 44.8220 -64.0440 265° West 467 537 40,000  Level FlightAware
01:48PM 44.8130 -64.1860 265° West 467 537 40,000  Level FlightAware
01:48PM 44.8060 -64.3050 265° West 467 537 40,000  Level FlightAware
01:49PM 44.7970 -64.4440 265° West 469 540 40,000  Level FlightAware
01:50PM 44.7890 -64.5570 264° West 468 539 40,000  Level FlightAware
01:50PM 44.7820 -64.6620 265° West 468 539 40,000  Level FlightAware
01:51PM 44.7730 -64.7940 265° West 468 539 40,000  Level FlightAware
01:52PM 44.7650 -64.9130 265° West 468 539 40,000  Level FlightAware
01:53PM 44.7550 -65.0540 264° West 468 539 40,000  Level FlightAware
01:53PM 44.7460 -65.1730 264° West 467 537 40,000  Level FlightAware
01:54PM 44.7380 -65.2880 264° West 467 537 40,000  Level FlightAware
01:55PM 44.7270 -65.4280 264° West 467 537 40,000  Level FlightAware
01:55PM 44.7190 -65.5400 264° West 467 537 40,000  Level FlightAware
01:56PM 44.7100 -65.6530 264° West 466 536 40,000  Level FlightAware
01:57PM 44.6990 -65.7940 264° West 466 536 40,000  Level FlightAware
01:57PM 44.6890 -65.9150 263° West 466 536 40,000  Level FlightAware
01:58PM 44.6800 -66.0300 264° West 468 539 40,000  Level FlightAware
01:59PM 44.6700 -66.1560 264° West 469 540 40,000  Level FlightAware
01:59PM 44.6590 -66.2870 263° West 469 540 40,000  Level FlightAware
02:00PM 44.6490 -66.4140 264° West 469 540 40,000  Level FlightAware
02:01PM 44.6380 -66.5420 263° West 469 540 40,000  Level FlightAware
02:01PM 44.6290 -66.6430 263° West 469 540 40,000  Level FlightAware
02:02PM 44.6160 -66.7930 263° West 469 540 40,000  Level FlightAware
02:03PM 44.6050 -66.9230 263° West 470 541 40,000  Level FlightAware
02:04PM 44.5930 -67.0610 263° West 470 541 40,000  Level FlightAware
02:04PM 44.5840 -67.1580 263° West 470 541 40,000  Level FlightAware
02:05PM 44.5720 -67.2840 262° West 471 542 40,000  Level FlightAware
02:06PM 44.5610 -67.4110 263° West 471 542 40,000  Level FlightAware
02:06PM 44.5510 -67.5200 263° West 473 544 40,000  Level FlightAware
02:07PM 44.5390 -67.6430 262° West 473 544 40,000  Level FlightAware
02:08PM 44.5260 -67.7740 262° West 473 544 40,000  Level FlightAware
02:08PM 44.5140 -67.8970 262° West 474 545 40,000  Level FlightAware
02:09PM 44.5020 -68.0290 263° West 474 545 40,000  Level FlightAware
02:10PM 44.4890 -68.1570 262° West 474 545 40,000  Level FlightAware
02:10PM 44.4770 -68.2770 262° West 474 545 40,000  Level FlightAware
02:11PM 44.4660 -68.3860 262° West 474 545 40,000  Level FlightAware
02:12PM 44.4480 -68.5620 262° West 474 545 40,000  Level FlightAware
02:13PM 44.4350 -68.6840 262° West 474 545 40,000  Level FlightAware
02:13PM 44.4220 -68.8130 262° West 474 545 40,000  Level FlightAware
02:14PM 44.4090 -68.9360 262° West 474 545 40,000  Level FlightAware
02:14PM 44.4010 -69.0100 261° West 474 545 40,000  Level FlightAware
02:15PM 44.3880 -69.1240 261° West 474 545 40,000  Level FlightAware
02:17PM 44.3570 -69.4080 261° West 478 550 40,000  Level FlightAware
02:17PM 44.3390 -69.5680 261° West 479 551 40,000  Level FlightAware
02:18PM 44.3240 -69.7000 261° West 480 552 40,000  Level FlightAware
02:19PM 44.3110 -69.8180 261° West 481 554 40,000  Level FlightAware
02:20PM 44.2950 -69.9530 261° West 482 555 40,000  Level FlightAware
02:20PM 44.2800 -70.0810 261° West 482 555 40,000  Level FlightAware
02:21PM 44.2660 -70.2060 261° West 482 555 40,000  Level FlightAware
02:22PM 44.2500 -70.3390 261° West 482 555 40,000  Level FlightAware
02:22PM 44.2390 -70.4260 260° West 482 555 40,000  Level FlightAware
02:23PM 44.2210 -70.5790 261° West 482 555 40,000  Level FlightAware
02:24PM 44.2060 -70.7010 260° West 482 555 40,000  Level FlightAware
02:24PM 44.1900 -70.8300 260° West 482 555 40,000  Level FlightAware
02:25PM 44.1750 -70.9520 260° West 482 555 40,000  Level FlightAware
02:26PM 44.1580 -71.0860 260° West 482 555 40,000  Level FlightAware
02:26PM 44.1470 -71.2090 263° West 481 554 40,000  Level FlightAware
02:27PM 44.1380 -71.3310 264° West 482 555 40,000  Level FlightAware
02:28PM 44.1290 -71.4660 265° West 481 554 40,000  Level FlightAware
02:29PM 44.1200 -71.6040 265° West 481 554 40,000  Level FlightAware
02:29PM 44.1110 -71.7300 264° West 480 552 40,000  Level FlightAware
02:30PM 44.1020 -71.8550 264° West 480 552 40,000  Level FlightAware
02:31PM 44.0920 -71.9950 264° West 480 552 40,000  Level FlightAware
02:31PM 44.0850 -72.0940 264° West 480 552 40,000  Level FlightAware
02:32PM 44.0750 -72.2210 264° West 480 552 40,000  Level FlightAware
02:33PM 44.0650 -72.3550 264° West 479 551 40,000  Level FlightAware
02:33PM 44.0580 -72.4540 264° West 479 551 40,000  Level FlightAware
02:34PM 44.0450 -72.6140 264° West 480 552 40,000  Level FlightAware
02:35PM 44.0350 -72.7350 263° West 480 552 40,000  Level FlightAware
02:35PM 44.0250 -72.8680 264° West 481 554 40,000  Level FlightAware
02:36PM 44.0170 -72.9630 263° West 481 554 40,000  Level FlightAware
02:37PM 44.0070 -73.0890 264° West 481 554 40,000  Level FlightAware
02:37PM 43.9950 -73.2270 263° West 481 554 40,000  Level FlightAware
02:38PM 43.9850 -73.3410 263° West 482 555 40,000  Level FlightAware
02:39PM 43.9690 -73.5330 263° West 482 555 40,000  Level FlightAware
02:40PM 43.9580 -73.6550 263° West 482 555 40,000  Level FlightAware
02:40PM 43.9470 -73.7790 263° West 482 555 40,000  Level FlightAware
02:41PM 43.9340 -73.9160 263° West 482 555 40,000  Level FlightAware
02:42PM 43.9240 -74.0350 263° West 482 555 40,000  Level FlightAware
02:42PM 43.9120 -74.1630 263° West 483 556 40,000  Level FlightAware
02:43PM 43.8990 -74.3000 263° West 484 557 40,000  Level FlightAware
02:44PM 43.8870 -74.4230 262° West 484 557 40,000  Level FlightAware
02:45PM 43.8760 -74.5420 263° West 484 557 40,000  Level FlightAware
02:45PM 43.8640 -74.6650 262° West 484 557 40,000  Level FlightAware
02:46PM 43.8540 -74.7670 262° West 483 556 40,000  Level FlightAware
02:47PM 43.8400 -74.9090 262° West 483 556 40,000  Level FlightAware
02:47PM 43.8290 -75.0180 262° West 483 556 40,000  Level FlightAware
02:48PM 43.8170 -75.1390 262° West 483 556 40,000  Level FlightAware
02:49PM 43.8030 -75.2780 262° West 483 556 40,000  Level FlightAware
02:49PM 43.7940 -75.3610 261° West 483 556 40,000  Level FlightAware
02:50PM 43.7810 -75.4880 262° West 482 555 40,000  Level FlightAware
02:50PM 43.7650 -75.6350 261° West 481 554 40,000  Level FlightAware
02:51PM 43.7520 -75.7550 262° West 480 552 40,000  Level FlightAware
02:52PM 43.7390 -75.8780 262° West 479 551 40,000  Level FlightAware
02:52PM 43.7280 -75.9780 261° West 479 551 40,000  Level FlightAware
02:53PM 43.7130 -76.1180 262° West 478 550 40,000  Level FlightAware
02:54PM 43.6990 -76.2390 261° West 477 549 40,000  Level FlightAware
02:55PM 43.6840 -76.3700 261° West 476 548 40,000  Level FlightAware
02:55PM 43.6690 -76.5030 261° West 476 548 40,000  Level FlightAware
02:56PM 43.6560 -76.6160 261° West 476 548 40,000  Level FlightAware
02:57PM 43.6420 -76.7440 261° West 475 547 40,000  Level FlightAware
02:57PM 43.6290 -76.8530 261° West 476 548 40,000  Level FlightAware
02:58PM 43.6150 -76.9730 261° West 476 548 40,000  Level FlightAware
02:59PM 43.5980 -77.1110 260° West 476 548 40,000  Level FlightAware
02:59PM 43.5870 -77.2010 260° West 476 548 40,000  Level FlightAware
03:00PM 43.5720 -77.3280 261° West 475 547 40,000  Level FlightAware
03:01PM 43.5560 -77.4620 261° West 475 547 40,000  Level FlightAware
03:01PM 43.5400 -77.5840 260° West 476 548 40,000  Level FlightAware
03:02PM 43.5260 -77.7010 261° West 476 548 40,000  Level FlightAware
03:03PM 43.5100 -77.8260 260° West 476 548 40,000  Level FlightAware
03:03PM 43.4930 -77.9640 260° West 476 548 40,000  Level FlightAware
03:04PM 43.4780 -78.0800 260° West 476 548 40,000  Level FlightAware
03:05PM 43.4560 -78.2500 260° West 475 547 40,000  Level FlightAware
03:06PM 43.4390 -78.3770 260° West 475 547 40,000  Level FlightAware
03:06PM 43.4230 -78.4990 260° West 474 545 40,000  Level FlightAware
03:07PM 43.4050 -78.6310 259° West 474 545 40,000  Level FlightAware
03:08PM 43.3910 -78.7370 260° West 473 544 40,000  Level FlightAware
03:08PM 43.3750 -78.8560 260° West 474 545 40,000  Level FlightAware
03:09PM 43.3590 -78.9750 260° West 474 545 40,000  Level FlightAware
03:10PM 43.3380 -79.1260 259° West 474 545 40,000  Level FlightAware
03:11PM 43.3210 -79.2440 259° West 474 545 40,000  Level FlightAware
03:12PM 43.2890 -79.4740 259° West 473 544 40,000  Level FlightAware
03:13PM 43.2730 -79.5880 259° West 473 544 40,000  Level FlightAware
03:13PM 43.2560 -79.7010 258° West 472 543 40,000  Level FlightAware
03:14PM 43.2390 -79.8220 259° West 463 533 40,000  Level FlightAware
03:15PM 43.2220 -79.9380 259° West 462 532 40,000  Level FlightAware
03:15PM 43.2090 -80.0270 259° West 462 532 40,000  Level FlightAware
03:16PM 43.1900 -80.1530 258° West 461 531 40,000  Level FlightAware
03:17PM 43.1720 -80.2790 259° West 461 531 40,000  Level FlightAware
03:17PM 43.1550 -80.3860 258° West 456 525 40,000  Level FlightAware
03:18PM 43.1360 -80.5170 259° West 451 519 40,000  Level FlightAware
03:19PM 43.1200 -80.6220 258° West 450 518 40,000  Level FlightAware
03:19PM 43.1010 -80.7470 258° West 449 517 40,000  Level FlightAware
03:20PM 43.0840 -80.8540 258° West 449 517 40,000  Level FlightAware
03:21PM 43.0680 -80.9580 258° West 448 516 40,000  Level FlightAware
03:21PM 43.0490 -81.0760 258° West 448 516 40,000  Level FlightAware
03:22PM 43.0370 -81.1950 262° West 449 517 40,000  Level FlightAware
03:23PM 43.0350 -81.3050 269° West 450 518 40,000  Level FlightAware
03:23PM 43.0330 -81.4180 269° West 451 519 40,000  Level FlightAware
03:24PM 43.0310 -81.5460 269° West 451 519 40,000  Level FlightAware
03:25PM 43.0290 -81.6630 269° West 451 519 40,000  Level FlightAware
03:26PM 43.0260 -81.7760 268° West 451 519 40,000  Level FlightAware
03:26PM 43.0230 -81.9040 268° West 451 519 40,000  Level FlightAware
03:27PM 43.0210 -82.0240 269° West 451 519 40,000  Level FlightAware
03:28PM 43.0180 -82.1460 268° West 451 519 40,000  Level FlightAware
03:28PM 43.0150 -82.2590 268° West 450 518 40,000  Level FlightAware
03:29PM 43.0120 -82.3780 268° West 451 519 40,000  Level FlightAware
03:30PM 43.0040 -82.4740 264° West 449 517 40,000 -480 Level FlightAware
03:30PM 42.9870 -82.6080 260° West 444 511 39,400 -1,140 Descending FlightAware
03:31PM 42.9720 -82.7270 260° West 431 496 38,300 -1,680 Descending FlightAware
03:32PM 42.9570 -82.8320 259° West 424 488 37,100 -2,460 Descending FlightAware
03:33PM 42.9400 -82.9460 259° West 441 507 34,900 -2,280 Descending FlightAware
03:33PM 42.9220 -83.0550 257° West 451 519 34,000 -720 Descending FlightAware
03:34PM 42.9020 -83.1720 257° West 452 520 34,000  Level FlightAware
03:35PM 42.8820 -83.2870 257° West 451 519 34,000 -540 Level FlightAware
03:35PM 42.8610 -83.4010 256° West 444 511 33,300 -1,380 Descending FlightAware
03:36PM 42.8380 -83.5270 256° West 448 516 32,000 -960 Descending FlightAware
03:37PM 42.8190 -83.6320 256° West 453 521 32,000  Level FlightAware
03:37PM 42.8110 -83.7510 265° West 450 518 32,000  Level FlightAware
03:38PM 42.8200 -83.8530 277° West 450 518 32,000  Level FlightAware
03:39PM 42.8300 -83.9700 277° West 446 513 32,000  Level FlightAware
03:39PM 42.8400 -84.0820 277° West 447 514 32,000  Level FlightAware
03:40PM 42.8530 -84.1620 283° West 445 512 32,000  Level FlightAware
03:41PM 42.8930 -84.2720 296° West 444 511 32,000  Level FlightAware
03:41PM 42.8980 -84.4230 273° West 445 512 32,000  Level FlightAware
03:42PM 42.8870 -84.5370 263° West 445 512 32,000  Level FlightAware
03:43PM 42.8760 -84.6490 262° West 444 511 32,000  Level FlightAware
03:43PM 42.8660 -84.7490 262° West 444 511 32,000  Level FlightAware
03:44PM 42.8540 -84.8710 262° West 445 512 32,000  Level FlightAware
03:45PM 42.8400 -85.0040 262° West 445 512 32,000  Level FlightAware
03:46PM 42.8270 -85.1260 262° West 445 512 32,000  Level FlightAware
03:46PM 42.8150 -85.2430 262° West 445 512 32,000  Level FlightAware
03:47PM 42.8040 -85.3430 262° West 446 513 32,000 -180 Level FlightAware
03:48PM 42.7920 -85.4530 262° West 442 509 31,800 -1,380 Descending FlightAware
03:48PM 42.7740 -85.5710 258° West 439 505 30,100 -2,520 Descending FlightAware
03:49PM 42.7540 -85.6800 256° West 442 509 28,300 -2,520 Descending FlightAware
03:50PM 42.7350 -85.7860 256° West 438 504 26,800 -2,220 Descending FlightAware
03:50PM 42.7130 -85.9050 256° West 430 495 25,200 -2,160 Descending FlightAware
03:51PM 42.6930 -86.0170 256° West 423 487 23,700 -2,160 Descending FlightAware
03:52PM 42.6760 -86.1050 255° West 416 479 22,400 -2,160 Descending FlightAware
03:52PM 42.6580 -86.2070 257° West 409 471 21,000 -2,040 Descending FlightAware
03:53PM 42.6390 -86.3060 255° West 398 458 19,700 -2,040 Descending FlightAware
03:54PM 42.6220 -86.4010 256° West 390 449 18,300 -1,320 Descending FlightAware
03:54PM 42.6040 -86.4960 256° West 387 445 18,000 -240 Descending FlightAware
03:55PM 42.5850 -86.5950 255° West 387 445 18,000  Level FlightAware
03:56PM 42.5690 -86.6810 256° West 386 444 18,000 -1,020 Level FlightAware
03:57PM 42.5440 -86.7860 252° West 377 434 16,600 -2,100 Descending FlightAware
03:57PM 42.5220 -86.8690 250° West 376 433 15,200 -2,220 Descending FlightAware
03:58PM 42.4970 -86.9600 250° West 369 425 13,700 -2,100 Descending FlightAware
03:59PM 42.4710 -87.0550 250° West 361 415 12,200 -2,100 Descending FlightAware
03:59PM 42.4500 -87.1310 249° West 355 409 10,900 -1,740 Descending FlightAware
04:00PM 42.4250 -87.2210 249° West 338 389 9,900 -1,020 Descending FlightAware
04:00PM 42.4100 -87.2760 250° West 341 392 9,700 -240 Descending FlightAware
04:01PM 42.3970 -87.3230 249° West 342 394 9,700  Level FlightAware
04:01PM 42.3840 -87.3710 250° West 343 395 9,700  Level FlightAware
04:02PM 42.3670 -87.4330 250° West 342 394 9,700  Level FlightAware
04:02PM 42.3520 -87.4850 249° West 343 395 9,700  Level FlightAware
04:02PM 42.3420 -87.5160 246° West 342 394 9,700  Level FlightAware
04:03PM 42.3190 -87.5540 231° Southwest 316 364 9,700  Level FlightAware
04:03PM 42.3030 -87.5740 223° Southwest 300 345 9,700 -300 Level FlightAware
04:04PM 42.2740 -87.6040 217° Southwest 279 321 9,500 -1,020 Descending FlightAware
04:04PM 42.2450 -87.6350 218° Southwest 278 320 8,800 -900 Descending FlightAware
04:04PM 42.2160 -87.6660 218° Southwest 281 323 8,700 -180 Descending FlightAware
04:05PM 42.1990 -87.6840 218° Southwest 279 321 8,700  Level FlightAware
04:05PM 42.1760 -87.7070 217° Southwest 277 319 8,700  Level FlightAware
04:06PM 42.1440 -87.7410 218° Southwest 277 319 8,700  Level FlightAware
04:06PM 42.1170 -87.7700 219° Southwest 281 323 8,700  Level FlightAware
04:06PM 42.1030 -87.7840 217° Southwest 282 325 8,700  Level FlightAware
04:07PM 42.0770 -87.8150 222° Southwest 285 328 8,700  Level FlightAware
04:07PM 42.0670 -87.8400 242° Southwest 290 334 8,700 -300 Level FlightAware
04:08PM 42.0590 -87.8930 259° West 291 335 8,500 -900 Descending FlightAware
04:08PM 42.0590 -87.9380 270° West 288 331 7,900 -960 Descending FlightAware
04:08PM 42.0590 -87.9870 270° West 288 331 7,700 -300 Descending FlightAware
04:09PM 42.0530 -88.0130 253° West 280 322 7,700  Level FlightAware
04:09PM 42.0420 -88.0300 229° Southwest 276 318 7,700  Level FlightAware
04:09PM 42.0130 -88.0620 219° Southwest 276 318 7,700  Level FlightAware
04:10PM 41.9870 -88.0910 220° Southwest 276 318 7,700  Level FlightAware
04:10PM 41.9710 -88.1060 215° Southwest 259 298 7,700  Level FlightAware
04:10PM 41.9490 -88.1270 215° Southwest 236 272 7,700  Level FlightAware
04:11PM 41.9220 -88.1520 215° Southwest 238 274 7,700  Level FlightAware
04:12PM 41.8900 -88.1880 220° Southwest 205 236 7,700 -540 Level FlightAware
04:12PM 41.8690 -88.2140 223° Southwest 197 227 7,200 -1,140 Descending FlightAware
04:12PM 41.8630 -88.2250 234° Southwest 201 231 7,000 -1,320 Descending FlightAware
04:13PM 41.8610 -88.2420 261° West 206 237 6,700 -1,080 Descending FlightAware
04:13PM 41.8620 -88.2810 272° West 207 238 6,200 -1,140 Descending FlightAware
04:13PM 41.8630 -88.2960 275° West 207 238 5,900 -1,200 Descending FlightAware
04:14PM 41.8700 -88.3350 284° West 209 241 5,400 -1,200 Descending FlightAware
04:14PM 41.8840 -88.3450 332° Northwest 210 242 5,000 -1,200 Descending FlightAware
04:14PM 41.9020 -88.3470 355° North 207 238 4,700 -480 Descending FlightAware
04:15PM 41.9200 -88.3390 18° North 204 235 4,700  Level FlightAware
04:15PM 41.9290 -88.3250 49° Northeast 200 230 4,700  Level FlightAware
04:15PM 41.9450 -88.2930 56° Northeast 199 229 4,700  Level FlightAware
04:16PM 41.9490 -88.2840 59° Northeast 199 229 4,700  Level FlightAware
04:16PM 41.9630 -88.2530 59° Northeast 202 232 4,700  Level FlightAware
04:16PM 41.9670 -88.2360 72° East 201 231 4,700 -720 Level FlightAware
04:17PM 41.9680 -88.2000 88° East 205 236 4,200 -1,140 Descending FlightAware
04:17PM 41.9680 -88.1820 90° East 203 234 3,900 -1,140 Descending FlightAware
04:18PM 41.9680 -88.1460 90° East 198 228 3,400 -1,020 Descending FlightAware
04:18PM 41.9680 -88.1150 90° East 188 216 3,000 -1,080 Descending FlightAware
04:19PM 41.9690 -88.0780 88° East 186 214 2,400 -1,080 Descending FlightAware
04:19PM 41.9690 -88.0500 90° East 171 197 2,000 -780 Descending FlightAware
04:20PM 41.9690 -88.0150 90° East 143 165 1,600 -780 Descending FlightAware
04:20PM 41.9690 -87.9970 90° East 141 162 1,300 -720 Descending FlightAware
04:21PM 41.9690 -87.9640 90° East 140 161 900 -720 Descending FlightAware
04:21PM 41.9690 -87.9510 90° East 141 162 700 -780 Descending FlightAware
04:21PM 41.9690 -87.9300 90° East 137 158 400 -720 Descending FlightAware